sensor_id;sensor_type;location;lat;lon;timestamp;pressure;altitude;pressure_sealevel;temperature;humidity
58955;BME280;45815;52.334;5.024;2022-12-20T00:02:08;101247.50;;;8.55;100.00
58955;BME280;45815;52.334;5.024;2022-12-20T00:04:33;101250.91;;;8.54;100.00
58955;BME280;45815;52.334;5.024;2022-12-20T00:06:59;101250.91;;;8.53;100.00
58955;BME280;45815;52.334;5.024;2022-12-20T00:09:24;101253.44;;;8.51;100.00
58955;BME280;45815;52.334;5.024;2022-12-20T00:11:50;101244.66;;;8.49;100.00
58955;BME280;45815;52.334;5.024;2022-12-20T00:14:16;101251.69;;;8.50;100.00
58955;BME280;45815;52.334;5.024;2022-12-20T00:16:42;101261.28;;;8.51;100.00
58955;BME280;45815;52.334;5.024;2022-12-20T00:19:09;101255.97;;;8.48;100.00
58955;BME280;45815;52.334;5.024;2022-12-20T00:21:35;101252.50;;;8.49;100.00
58955;BME280;45815;52.334;5.024;2022-12-20T00:24:01;101254.28;;;8.50;100.00
58955;BME280;45815;52.334;5.024;2022-12-20T00:26:29;101246.38;;;8.49;100.00
58955;BME280;45815;52.334;5.024;2022-12-20T00:28:55;101236.63;;;8.43;100.00
58955;BME280;45815;52.334;5.024;2022-12-20T00:31:22;101243.72;;;8.47;100.00
58955;BME280;45815;52.334;5.024;2022-12-20T00:33:51;101233.38;;;8.50;100.00
58955;BME280;45815;52.334;5.024;2022-12-20T00:36:17;101228.88;;;8.46;100.00
58955;BME280;45815;52.334;5.024;2022-12-20T00:38:45;101225.38;;;8.45;100.00
58955;BME280;45815;52.334;5.024;2022-12-20T00:41:16;101234.00;;;8.43;100.00
58955;BME280;45815;52.334;5.024;2022-12-20T00:43:42;101230.63;;;8.47;100.00
58955;BME280;45815;52.334;5.024;2022-12-20T00:46:10;101238.31;;;8.42;100.00
58955;BME280;45815;52.334;5.024;2022-12-20T00:48:36;101236.63;;;8.43;100.00
58955;BME280;45815;52.334;5.024;2022-12-20T00:51:08;101238.44;;;8.45;100.00
58955;BME280;45815;52.334;5.024;2022-12-20T00:53:35;101233.16;;;8.44;100.00
58955;BME280;45815;52.334;5.024;2022-12-20T00:56:01;101232.59;;;8.53;100.00
58955;BME280;45815;52.334;5.024;2022-12-20T00:58:27;101216.75;;;8.50;100.00
58955;BME280;45815;52.334;5.024;2022-12-20T01:00:53;101231.69;;;8.52;100.00
58955;BME280;45815;52.334;5.024;2022-12-20T01:03:19;101224.72;;;8.53;100.00
58955;BME280;45815;52.334;5.024;2022-12-20T01:05:59;101212.31;;;8.47;100.00
58955;BME280;45815;52.334;5.024;2022-12-20T01:08:26;101215.09;;;8.52;100.00
58955;BME280;45815;52.334;5.024;2022-12-20T01:11:02;101199.28;;;8.49;100.00
58955;BME280;45815;52.334;5.024;2022-12-20T01:13:28;101201.13;;;8.51;100.00
58955;BME280;45815;52.334;5.024;2022-12-20T01:15:55;101192.47;;;8.54;100.00
58955;BME280;45815;52.334;5.024;2022-12-20T01:18:20;101195.97;;;8.54;100.00
58955;BME280;45815;52.334;5.024;2022-12-20T01:20:46;101189.94;;;8.55;100.00
58955;BME280;45815;52.334;5.024;2022-12-20T01:23:11;101200.41;;;8.55;100.00
58955;BME280;45815;52.334;5.024;2022-12-20T01:25:37;101203.88;;;8.56;100.00
58955;BME280;45815;52.334;5.024;2022-12-20T01:28:03;101203.09;;;8.58;100.00
58955;BME280;45815;52.334;5.024;2022-12-20T01:30:28;101206.59;;;8.59;100.00
58955;BME280;45815;52.334;5.024;2022-12-20T01:32:54;101203.19;;;8.61;100.00
58955;BME280;45815;52.334;5.024;2022-12-20T01:35:19;101202.38;;;8.62;100.00
58955;BME280;45815;52.334;5.024;2022-12-20T01:37:45;101193.66;;;8.63;100.00
58955;BME280;45815;52.334;5.024;2022-12-20T01:40:10;101205.81;;;8.61;100.00
58955;BME280;45815;52.334;5.024;2022-12-20T01:42:36;101205.81;;;8.61;100.00
58955;BME280;45815;52.334;5.024;2022-12-20T01:45:07;101207.59;;;8.62;100.00
58955;BME280;45815;52.334;5.024;2022-12-20T01:47:37;101186.66;;;8.62;100.00
58955;BME280;45815;52.334;5.024;2022-12-20T01:50:06;101186.66;;;8.62;100.00
58955;BME280;45815;52.334;5.024;2022-12-20T01:52:41;101188.25;;;8.57;100.00
58955;BME280;45815;52.334;5.024;2022-12-20T01:55:12;101184.88;;;8.61;100.00
58955;BME280;45815;52.334;5.024;2022-12-20T01:57:43;101185.63;;;8.57;100.00
58955;BME280;45815;52.334;5.024;2022-12-20T02:00:11;101176.59;;;8.48;100.00
58955;BME280;45815;52.334;5.024;2022-12-20T02:02:40;101179.47;;;8.55;100.00
58955;BME280;45815;52.334;5.024;2022-12-20T02:05:06;101177.78;;;8.57;100.00
58955;BME280;45815;52.334;5.024;2022-12-20T02:07:33;101172.59;;;8.59;100.00
58955;BME280;45815;52.334;5.024;2022-12-20T02:10:00;101163.94;;;8.61;100.00
58955;BME280;45815;52.334;5.024;2022-12-20T02:12:38;101160.50;;;8.62;100.00
58955;BME280;45815;52.334;5.024;2022-12-20T02:23:34;101163.50;;;8.75;100.00
58955;BME280;45815;52.334;5.024;2022-12-20T02:26:54;101150.41;;;8.75;100.00
58955;BME280;45815;52.334;5.024;2022-12-20T02:31:59;101158.50;;;8.82;100.00
58955;BME280;45815;52.334;5.024;2022-12-20T02:34:26;101152.44;;;8.83;100.00
58955;BME280;45815;52.334;5.024;2022-12-20T02:36:52;101158.56;;;8.84;100.00
58955;BME280;45815;52.334;5.024;2022-12-20T02:39:20;101148.16;;;8.87;100.00
58955;BME280;45815;52.334;5.024;2022-12-20T02:41:53;101154.25;;;8.86;100.00
58955;BME280;45815;52.334;5.024;2022-12-20T02:44:23;101153.47;;;8.88;100.00
58955;BME280;45815;52.334;5.024;2022-12-20T02:47:13;101167.50;;;8.91;100.00
58955;BME280;45815;52.334;5.024;2022-12-20T02:49:45;101159.69;;;8.92;100.00
58955;BME280;45815;52.334;5.024;2022-12-20T02:52:12;101176.28;;;8.93;100.00
58955;BME280;45815;52.334;5.024;2022-12-20T02:54:39;101158.84;;;8.93;100.00
58955;BME280;45815;52.334;5.024;2022-12-20T02:57:12;101143.19;;;8.95;100.00
58955;BME280;45815;52.334;5.024;2022-12-20T02:59:58;101144.97;;;8.96;100.00
58955;BME280;45815;52.334;5.024;2022-12-20T03:02:29;101145.97;;;8.99;100.00
58955;BME280;45815;52.334;5.024;2022-12-20T03:05:15;101145.09;;;9.00;100.00
58955;BME280;45815;52.334;5.024;2022-12-20T03:07:42;101152.88;;;8.97;100.00
58955;BME280;45815;52.334;5.024;2022-12-20T03:10:08;101148.50;;;8.98;100.00
58955;BME280;45815;52.334;5.024;2022-12-20T03:12:34;101142.41;;;8.97;100.00
58955;BME280;45815;52.334;5.024;2022-12-20T03:15:00;101137.25;;;9.00;100.00
58955;BME280;45815;52.334;5.024;2022-12-20T03:17:26;101141.69;;;9.03;100.00
58955;BME280;45815;52.334;5.024;2022-12-20T03:19:52;101142.47;;;9.00;100.00
58955;BME280;45815;52.334;5.024;2022-12-20T03:22:17;101141.69;;;9.03;100.00
58955;BME280;45815;52.334;5.024;2022-12-20T03:24:42;101132.00;;;9.00;100.00
58955;BME280;45815;52.334;5.024;2022-12-20T03:27:10;101145.28;;;9.06;100.00
58955;BME280;45815;52.334;5.024;2022-12-20T03:29:37;101138.31;;;9.07;100.00
58955;BME280;45815;52.334;5.024;2022-12-20T03:32:02;101135.75;;;9.08;100.00
58955;BME280;45815;52.334;5.024;2022-12-20T03:34:28;101137.56;;;9.11;100.00
58955;BME280;45815;52.334;5.024;2022-12-20T03:36:54;101134.03;;;9.11;100.00
58955;BME280;45815;52.334;5.024;2022-12-20T03:39:19;101138.47;;;9.12;100.00
58955;BME280;45815;52.334;5.024;2022-12-20T03:41:44;101127.25;;;9.16;100.00
58955;BME280;45815;52.334;5.024;2022-12-20T03:44:14;101113.28;;;9.17;100.00
58955;BME280;45815;52.334;5.024;2022-12-20T03:46:40;101116.75;;;9.16;100.00
58955;BME280;45815;52.334;5.024;2022-12-20T03:49:05;101112.47;;;9.19;100.00
58955;BME280;45815;52.334;5.024;2022-12-20T03:51:34;101109.91;;;9.21;100.00
58955;BME280;45815;52.334;5.024;2022-12-20T03:54:00;101121.34;;;9.23;100.00
58955;BME280;45815;52.334;5.024;2022-12-20T03:56:43;101120.47;;;9.24;100.00
58955;BME280;45815;52.334;5.024;2022-12-20T03:59:09;101118.88;;;9.29;100.00
58955;BME280;45815;52.334;5.024;2022-12-20T04:01:34;101110.19;;;9.30;100.00
58955;BME280;45815;52.334;5.024;2022-12-20T04:04:03;101116.38;;;9.34;100.00
58955;BME280;45815;52.334;5.024;2022-12-20T04:06:29;101112.81;;;9.30;100.00
58955;BME280;45815;52.334;5.024;2022-12-20T04:08:55;101105.88;;;9.32;100.00
58955;BME280;45815;52.334;5.024;2022-12-20T04:11:28;101099.72;;;9.30;100.00
58955;BME280;45815;52.334;5.024;2022-12-20T04:14:14;101103.06;;;9.26;100.00
58955;BME280;45815;52.334;5.024;2022-12-20T04:16:39;101099.53;;;9.24;100.00
58955;BME280;45815;52.334;5.024;2022-12-20T04:19:05;101101.31;;;9.25;100.00
58955;BME280;45815;52.334;5.024;2022-12-20T04:21:37;101089.91;;;9.23;100.00
58955;BME280;45815;52.334;5.024;2022-12-20T04:24:03;101078.41;;;9.18;100.00
58955;BME280;45815;52.334;5.024;2022-12-20T04:26:48;101084.53;;;9.18;100.00
58955;BME280;45815;52.334;5.024;2022-12-20T04:29:15;101101.22;;;9.22;100.00
58955;BME280;45815;52.334;5.024;2022-12-20T04:31:41;101082.78;;;9.19;100.00
58955;BME280;45815;52.334;5.024;2022-12-20T04:34:07;101081.88;;;9.17;100.00
58955;BME280;45815;52.334;5.024;2022-12-20T04:36:33;101081.78;;;9.14;100.00
58955;BME280;45815;52.334;5.024;2022-12-20T04:39:02;101084.28;;;9.09;100.00
58955;BME280;45815;52.334;5.024;2022-12-20T04:41:34;101074.69;;;9.09;100.00
58955;BME280;45815;52.334;5.024;2022-12-20T04:44:07;101086.97;;;9.12;100.00
58955;BME280;45815;52.334;5.024;2022-12-20T04:46:35;101099.19;;;9.12;100.00
58955;BME280;45815;52.334;5.024;2022-12-20T04:49:01;101090.47;;;9.13;100.00
58955;BME280;45815;52.334;5.024;2022-12-20T04:51:30;101091.41;;;9.15;100.00
58955;BME280;45815;52.334;5.024;2022-12-20T04:53:56;101094.03;;;9.15;100.00
58955;BME280;45815;52.334;5.024;2022-12-20T04:56:28;101092.16;;;9.11;100.00
58955;BME280;45815;52.334;5.024;2022-12-20T04:59:01;101097.38;;;9.11;100.00
58955;BME280;45815;52.334;5.024;2022-12-20T05:01:27;101086.84;;;9.07;100.00
58955;BME280;45815;52.334;5.024;2022-12-20T05:03:53;101086.00;;;9.08;100.00
58955;BME280;45815;52.334;5.024;2022-12-20T05:06:19;101087.72;;;9.08;100.00
58955;BME280;45815;52.334;5.024;2022-12-20T05:08:46;101088.69;;;9.12;100.00
58955;BME280;45815;52.334;5.024;2022-12-20T05:11:12;101082.59;;;9.11;100.00
58955;BME280;45815;52.334;5.024;2022-12-20T05:13:37;101084.41;;;9.14;100.00
58955;BME280;45815;52.334;5.024;2022-12-20T05:16:03;101074.75;;;9.13;100.00
58955;BME280;45815;52.334;5.024;2022-12-20T05:18:32;101069.66;;;9.17;100.00
58955;BME280;45815;52.334;5.024;2022-12-20T05:21:02;101067.09;;;9.19;100.00
58955;BME280;45815;52.334;5.024;2022-12-20T05:23:49;101072.41;;;9.22;100.00
58955;BME280;45815;52.334;5.024;2022-12-20T05:26:46;101076.81;;;9.23;100.00
58955;BME280;45815;52.334;5.024;2022-12-20T05:29:13;101074.25;;;9.26;100.00
58955;BME280;45815;52.334;5.024;2022-12-20T05:31:39;101074.31;;;9.27;100.00
58955;BME280;45815;52.334;5.024;2022-12-20T05:34:05;101067.34;;;9.28;100.00
58955;BME280;45815;52.334;5.024;2022-12-20T05:36:34;101056.13;;;9.32;100.00
58955;BME280;45815;52.334;5.024;2022-12-20T05:39:01;101051.63;;;9.28;100.00
58955;BME280;45815;52.334;5.024;2022-12-20T05:41:26;101052.44;;;9.27;100.00
58955;BME280;45815;52.334;5.024;2022-12-20T05:43:52;101045.59;;;9.30;100.00
58955;BME280;45815;52.334;5.024;2022-12-20T05:46:17;101049.09;;;9.31;100.00
58955;BME280;45815;52.334;5.024;2022-12-20T05:49:04;101043.84;;;9.31;100.00
58955;BME280;45815;52.334;5.024;2022-12-20T05:51:30;101033.34;;;9.29;100.00
58955;BME280;45815;52.334;5.024;2022-12-20T05:54:00;101051.69;;;9.29;100.00
58955;BME280;45815;52.334;5.024;2022-12-20T05:56:52;101040.28;;;9.29;100.00
58955;BME280;45815;52.334;5.024;2022-12-20T05:59:22;101046.56;;;9.34;100.00
58955;BME280;45815;52.334;5.024;2022-12-20T06:01:47;101047.44;;;9.35;100.00
58955;BME280;45815;52.334;5.024;2022-12-20T06:04:13;101053.56;;;9.35;100.00
58955;BME280;45815;52.334;5.024;2022-12-20T06:06:39;101063.25;;;9.38;100.00
58955;BME280;45815;52.334;5.024;2022-12-20T06:09:06;101052.81;;;9.39;100.00
58955;BME280;45815;52.334;5.024;2022-12-20T06:11:41;101042.28;;;9.38;100.00
58955;BME280;45815;52.334;5.024;2022-12-20T06:14:10;101040.53;;;9.37;100.00
58955;BME280;45815;52.334;5.024;2022-12-20T06:16:39;101030.19;;;9.43;100.00
58955;BME280;45815;52.334;5.024;2022-12-20T06:19:06;101024.06;;;9.42;100.00
58955;BME280;45815;52.334;5.024;2022-12-20T06:21:32;101025.88;;;9.45;100.00
58955;BME280;45815;52.334;5.024;2022-12-20T06:23:59;101032.00;;;9.45;100.00
58955;BME280;45815;52.334;5.024;2022-12-20T06:26:26;101032.09;;;9.48;100.00
58955;BME280;45815;52.334;5.024;2022-12-20T06:28:53;101033.88;;;9.49;100.00
58955;BME280;45815;52.334;5.024;2022-12-20T06:31:32;101032.00;;;9.45;100.00
58955;BME280;45815;52.334;5.024;2022-12-20T06:33:58;101034.72;;;9.48;100.00
58955;BME280;45815;52.334;5.024;2022-12-20T06:36:28;101035.59;;;9.49;100.00
58955;BME280;45815;52.334;5.024;2022-12-20T06:38:54;101040.91;;;9.50;100.00
58955;BME280;45815;52.334;5.024;2022-12-20T06:41:19;101028.63;;;9.49;100.00
58955;BME280;45815;52.334;5.024;2022-12-20T06:43:45;101025.19;;;9.52;100.00
58955;BME280;45815;52.334;5.024;2022-12-20T06:46:11;101021.69;;;9.51;100.00
58955;BME280;45815;52.334;5.024;2022-12-20T06:48:37;101030.44;;;9.52;100.00
58955;BME280;45815;52.334;5.024;2022-12-20T06:51:04;101028.69;;;9.52;100.00
58955;BME280;45815;52.334;5.024;2022-12-20T06:53:29;101022.56;;;9.52;100.00
58955;BME280;45815;52.334;5.024;2022-12-20T06:55:54;101023.50;;;9.54;100.00
58955;BME280;45815;52.334;5.024;2022-12-20T06:58:20;101019.16;;;9.55;100.00
58955;BME280;45815;52.334;5.024;2022-12-20T07:00:47;101013.06;;;9.56;100.00
58955;BME280;45815;52.334;5.024;2022-12-20T07:03:13;101007.84;;;9.56;100.00
58955;BME280;45815;52.334;5.024;2022-12-20T07:05:39;100998.19;;;9.55;100.00
58955;BME280;45815;52.334;5.024;2022-12-20T07:08:06;101002.66;;;9.59;100.00
58955;BME280;45815;52.334;5.024;2022-12-20T07:10:35;101003.53;;;9.59;100.00
58955;BME280;45815;52.334;5.024;2022-12-20T07:13:03;101003.59;;;9.61;100.00
58955;BME280;45815;52.334;5.024;2022-12-20T07:15:28;101002.81;;;9.65;100.00
58955;BME280;45815;52.334;5.024;2022-12-20T07:17:53;101000.16;;;9.63;100.00
58955;BME280;45815;52.334;5.024;2022-12-20T07:20:19;101005.47;;;9.66;100.00
58955;BME280;45815;52.334;5.024;2022-12-20T07:22:48;100994.97;;;9.65;100.00
58955;BME280;45815;52.334;5.024;2022-12-20T07:25:14;100992.34;;;9.65;100.00
58955;BME280;45815;52.334;5.024;2022-12-20T07:27:39;100999.50;;;9.72;100.00
58955;BME280;45815;52.334;5.024;2022-12-20T07:30:05;101002.25;;;9.78;100.00
58955;BME280;45815;52.334;5.024;2022-12-20T07:32:31;100996.19;;;9.79;100.00
58955;BME280;45815;52.334;5.024;2022-12-20T07:34:57;100990.91;;;9.78;100.00
58955;BME280;45815;52.334;5.024;2022-12-20T07:37:22;100999.75;;;9.81;100.00
58955;BME280;45815;52.334;5.024;2022-12-20T07:39:48;101003.28;;;9.83;100.00
58955;BME280;45815;52.334;5.024;2022-12-20T07:42:13;101006.81;;;9.85;100.00
58955;BME280;45815;52.334;5.024;2022-12-20T07:44:47;101010.34;;;9.87;100.00
58955;BME280;45815;52.334;5.024;2022-12-20T07:47:12;101003.41;;;9.89;100.00
58955;BME280;45815;52.334;5.024;2022-12-20T07:49:38;100997.38;;;9.92;100.00
58955;BME280;45815;52.334;5.024;2022-12-20T07:52:04;101000.03;;;9.93;100.00
58955;BME280;45815;52.334;5.024;2022-12-20T07:54:34;101012.25;;;9.93;100.00
58955;BME280;45815;52.334;5.024;2022-12-20T07:57:07;101007.03;;;9.94;100.00
58955;BME280;45815;52.334;5.024;2022-12-20T07:59:41;101004.56;;;10.01;100.00
58955;BME280;45815;52.334;5.024;2022-12-20T08:02:11;101003.66;;;9.99;100.00
58955;BME280;45815;52.334;5.024;2022-12-20T08:04:39;101006.19;;;9.96;100.00
58955;BME280;45815;52.334;5.024;2022-12-20T08:07:06;101007.97;;;9.97;100.00
58955;BME280;45815;52.334;5.024;2022-12-20T08:09:35;100989.59;;;9.97;100.00
58955;BME280;45815;52.334;5.024;2022-12-20T08:12:02;100999.22;;;9.96;100.00
58955;BME280;45815;52.334;5.024;2022-12-20T08:14:28;100992.16;;;9.93;100.00
58955;BME280;45815;52.334;5.024;2022-12-20T08:16:53;100999.16;;;9.94;100.00
58955;BME280;45815;52.334;5.024;2022-12-20T08:19:19;101003.38;;;9.88;100.00
58955;BME280;45815;52.334;5.024;2022-12-20T08:21:44;101014.78;;;9.90;100.00
58955;BME280;45815;52.334;5.024;2022-12-20T08:24:10;101013.03;;;9.89;100.00
58955;BME280;45815;52.334;5.024;2022-12-20T08:26:39;101024.34;;;9.86;100.00
58955;BME280;45815;52.334;5.024;2022-12-20T08:29:04;101017.22;;;9.82;100.00
58955;BME280;45815;52.334;5.024;2022-12-20T08:31:30;101029.47;;;9.82;100.00
58955;BME280;45815;52.334;5.024;2022-12-20T08:33:55;101036.34;;;9.78;100.00
58955;BME280;45815;52.334;5.024;2022-12-20T08:36:21;101030.16;;;9.76;100.00
58955;BME280;45815;52.334;5.024;2022-12-20T08:38:46;101031.78;;;9.71;100.00
58955;BME280;45815;52.334;5.024;2022-12-20T08:41:13;101029.16;;;9.69;100.00
58955;BME280;45815;52.334;5.024;2022-12-20T08:43:40;101024.75;;;9.68;100.00
58955;BME280;45815;52.334;5.024;2022-12-20T08:46:07;101022.16;;;9.70;100.00
58955;BME280;45815;52.334;5.024;2022-12-20T08:48:33;101025.59;;;9.67;100.00
58955;BME280;45815;52.334;5.024;2022-12-20T08:51:01;101028.13;;;9.64;100.00
58955;BME280;45815;52.334;5.024;2022-12-20T08:53:27;101024.69;;;9.65;100.00
58955;BME280;45815;52.334;5.024;2022-12-20T08:56:09;101027.09;;;9.58;100.00
58955;BME280;45815;52.334;5.024;2022-12-20T08:58:36;101015.75;;;9.59;100.00
58955;BME280;45815;52.334;5.024;2022-12-20T09:01:07;101020.16;;;9.60;100.00
58955;BME280;45815;52.334;5.024;2022-12-20T09:03:34;101017.44;;;9.57;100.00
58955;BME280;45815;52.334;5.024;2022-12-20T09:06:04;101015.66;;;9.54;100.00
58955;BME280;45815;52.334;5.024;2022-12-20T09:08:31;101026.19;;;9.56;100.00
58955;BME280;45815;52.334;5.024;2022-12-20T09:11:08;101017.34;;;9.52;100.00
58955;BME280;45815;52.334;5.024;2022-12-20T09:13:34;101017.38;;;9.54;100.00
58955;BME280;45815;52.334;5.024;2022-12-20T09:16:02;101019.13;;;9.53;100.00
58955;BME280;45815;52.334;5.024;2022-12-20T09:18:29;101021.75;;;9.55;100.00
58955;BME280;45815;52.334;5.024;2022-12-20T09:20:54;101022.63;;;9.54;100.00
58955;BME280;45815;52.334;5.024;2022-12-20T09:23:20;101017.41;;;9.55;100.00
58955;BME280;45815;52.334;5.024;2022-12-20T09:25:45;101024.31;;;9.51;100.00
58955;BME280;45815;52.334;5.024;2022-12-20T09:28:11;101028.69;;;9.52;100.00
58955;BME280;45815;52.334;5.024;2022-12-20T09:30:36;101021.69;;;9.51;100.00
58955;BME280;45815;52.334;5.024;2022-12-20T09:33:02;101023.34;;;9.48;100.00
58955;BME280;45815;52.334;5.024;2022-12-20T09:35:27;101012.06;;;9.50;100.00
58955;BME280;45815;52.334;5.024;2022-12-20T09:37:53;101012.84;;;9.48;100.00
58955;BME280;45815;52.334;5.024;2022-12-20T09:40:21;100994.38;;;9.43;100.00
58955;BME280;45815;52.334;5.024;2022-12-20T09:42:48;101011.97;;;9.47;100.00
58955;BME280;45815;52.334;5.024;2022-12-20T09:45:27;101021.53;;;9.45;100.00
58955;BME280;45815;52.334;5.024;2022-12-20T09:47:53;101017.91;;;9.40;100.00
58955;BME280;45815;52.334;5.024;2022-12-20T09:50:31;101027.69;;;9.46;100.00
58955;BME280;45815;52.334;5.024;2022-12-20T09:55:53;101035.47;;;9.44;100.00
58955;BME280;45815;52.334;5.024;2022-12-20T10:01:20;101035.34;;;9.40;100.00
58955;BME280;45815;52.334;5.024;2022-12-20T10:03:46;101023.19;;;9.42;100.00
58955;BME280;45815;52.334;5.024;2022-12-20T10:08:58;101020.81;;;9.51;100.00
58955;BME280;45815;52.334;5.024;2022-12-20T10:17:04;101020.13;;;9.58;100.00
58955;BME280;45815;52.334;5.024;2022-12-20T10:19:38;101025.94;;;9.48;100.00
58955;BME280;45815;52.334;5.024;2022-12-20T10:22:18;101022.56;;;9.50;100.00
58955;BME280;45815;52.334;5.024;2022-12-20T10:24:56;101023.44;;;9.52;100.00
58955;BME280;45815;52.334;5.024;2022-12-20T10:27:24;101013.78;;;9.50;100.00
58955;BME280;45815;52.334;5.024;2022-12-20T10:29:50;101014.84;;;9.57;100.00
58955;BME280;45815;52.334;5.024;2022-12-20T10:32:22;101013.03;;;9.54;100.00
58955;BME280;45815;52.334;5.024;2022-12-20T10:35:00;101006.03;;;9.55;100.00
58955;BME280;45815;52.334;5.024;2022-12-20T10:40:30;101011.22;;;9.51;100.00
58955;BME280;45815;52.334;5.024;2022-12-20T10:42:56;101005.66;;;9.39;100.00
58955;BME280;45815;52.334;5.024;2022-12-20T10:47:50;101008.53;;;9.50;100.00
58955;BME280;45815;52.334;5.024;2022-12-20T10:50:21;101015.66;;;9.54;100.00
58955;BME280;45815;52.334;5.024;2022-12-20T10:55:36;101012.91;;;9.49;100.00
58955;BME280;45815;52.334;5.024;2022-12-20T10:58:04;101000.81;;;9.55;100.00
58955;BME280;45815;52.334;5.024;2022-12-20T11:00:31;101007.72;;;9.52;100.00
58955;BME280;45815;52.334;5.024;2022-12-20T11:03:11;101002.41;;;9.49;100.00
58955;BME280;45815;52.334;5.024;2022-12-20T11:05:38;101006.84;;;9.52;100.00
58955;BME280;45815;52.334;5.024;2022-12-20T11:08:15;101008.59;;;9.51;100.00
58955;BME280;45815;52.334;5.024;2022-12-20T11:10:42;100994.63;;;9.51;100.00
58955;BME280;45815;52.334;5.024;2022-12-20T11:13:19;101008.72;;;9.56;100.00
58955;BME280;45815;52.334;5.024;2022-12-20T11:15:49;100999.09;;;9.57;100.00
58955;BME280;45815;52.334;5.024;2022-12-20T11:18:26;101005.97;;;9.51;100.00
58955;BME280;45815;52.334;5.024;2022-12-20T11:24:10;101006.59;;;9.43;100.00
58955;BME280;45815;52.334;5.024;2022-12-20T11:40:32;100985.94;;;9.54;100.00
58955;BME280;45815;52.334;5.024;2022-12-20T11:49:00;101000.16;;;9.63;100.00
58955;BME280;45815;52.334;5.024;2022-12-20T11:51:35;100999.19;;;9.60;100.00
58955;BME280;45815;52.334;5.024;2022-12-20T11:54:10;100993.16;;;9.64;100.00
58955;BME280;45815;52.334;5.024;2022-12-20T11:56:40;100991.47;;;9.66;100.00
58955;BME280;45815;52.334;5.024;2022-12-20T11:59:23;100997.50;;;9.62;100.00
58955;BME280;45815;52.334;5.024;2022-12-20T12:02:10;101000.09;;;9.62;100.00
58955;BME280;45815;52.334;5.024;2022-12-20T12:04:48;100996.69;;;9.64;100.00
58955;BME280;45815;52.334;5.024;2022-12-20T12:07:24;100993.16;;;9.64;100.00
58955;BME280;45815;52.334;5.024;2022-12-20T12:09:57;100988.88;;;9.66;100.00
58955;BME280;45815;52.334;5.024;2022-12-20T12:23:22;100988.94;;;9.69;100.00
58955;BME280;45815;52.334;5.024;2022-12-20T12:25:51;100998.72;;;9.76;100.00
58955;BME280;45815;52.334;5.024;2022-12-20T12:28:18;100993.47;;;9.76;100.00
58955;BME280;45815;52.334;5.024;2022-12-20T12:30:50;100992.59;;;9.76;100.00
58955;BME280;45815;52.334;5.024;2022-12-20T12:33:22;100977.63;;;9.70;100.00
58955;BME280;45815;52.334;5.024;2022-12-20T12:44:42;100988.88;;;9.66;100.00
58955;BME280;45815;52.334;5.024;2022-12-20T12:47:20;100992.47;;;9.71;100.00
58955;BME280;45815;52.334;5.024;2022-12-20T12:49:48;100985.47;;;9.70;100.00
58955;BME280;45815;52.334;5.024;2022-12-20T12:52:47;100995.09;;;9.69;100.00
58955;BME280;45815;52.334;5.024;2022-12-20T12:55:51;100984.44;;;9.63;100.00
58955;BME280;45815;52.334;5.024;2022-12-20T13:21:57;101004.13;;;9.82;100.00
58955;BME280;45815;52.334;5.024;2022-12-20T13:27:34;100996.09;;;9.76;100.00
58955;BME280;45815;52.334;5.024;2022-12-20T13:40:22;101002.44;;;9.84;100.00
58955;BME280;45815;52.334;5.024;2022-12-20T13:42:53;100991.81;;;9.80;100.00
58955;BME280;45815;52.334;5.024;2022-12-20T13:45:21;100987.56;;;9.85;100.00
58955;BME280;45815;52.334;5.024;2022-12-20T13:47:53;100984.97;;;9.85;100.00
58955;BME280;45815;52.334;5.024;2022-12-20T13:50:54;100977.84;;;9.81;100.00
58955;BME280;45815;52.334;5.024;2022-12-20T13:53:22;100973.66;;;9.87;100.00
58955;BME280;45815;52.334;5.024;2022-12-20T13:55:48;100973.66;;;9.87;100.00
58955;BME280;45815;52.334;5.024;2022-12-20T13:58:20;100979.78;;;9.88;100.00
58955;BME280;45815;52.334;5.024;2022-12-20T14:00:46;100984.72;;;9.74;100.00
58955;BME280;45815;52.334;5.024;2022-12-20T14:03:30;100982.22;;;9.80;100.00
58955;BME280;45815;52.334;5.024;2022-12-20T14:06:00;100981.63;;;9.90;100.00
58955;BME280;45815;52.334;5.024;2022-12-20T14:08:29;100980.75;;;9.91;100.00
58955;BME280;45815;52.334;5.024;2022-12-20T14:11:07;100974.56;;;9.89;100.00
58955;BME280;45815;52.334;5.024;2022-12-20T14:13:32;100974.69;;;9.94;100.00
58955;BME280;45815;52.334;5.024;2022-12-20T14:16:27;100969.28;;;9.88;100.00
58955;BME280;45815;52.334;5.024;2022-12-20T14:19:03;100977.97;;;9.85;100.00
58955;BME280;45815;52.334;5.024;2022-12-20T14:21:29;100991.06;;;9.85;100.00
58955;BME280;45815;52.334;5.024;2022-12-20T14:23:56;100990.31;;;9.89;100.00
58955;BME280;45815;52.334;5.024;2022-12-20T14:26:24;100990.34;;;9.91;100.00
58955;BME280;45815;52.334;5.024;2022-12-20T14:28:52;100988.56;;;9.90;100.00
58955;BME280;45815;52.334;5.024;2022-12-20T14:31:28;100989.38;;;9.87;100.00
58955;BME280;45815;52.334;5.024;2022-12-20T14:34:21;100991.06;;;9.85;100.00
58955;BME280;45815;52.334;5.024;2022-12-20T14:36:49;100989.50;;;9.92;100.00
58955;BME280;45815;52.334;5.024;2022-12-20T14:39:33;100981.56;;;9.89;100.00
58955;BME280;45815;52.334;5.024;2022-12-20T14:44:31;100994.75;;;9.92;100.00
58955;BME280;45815;52.334;5.024;2022-12-20T14:47:00;100984.31;;;9.93;100.00
58955;BME280;45815;52.334;5.024;2022-12-20T14:49:32;100981.69;;;9.93;100.00
58955;BME280;45815;52.334;5.024;2022-12-20T14:54:42;100986.00;;;9.91;100.00
58955;BME280;45815;52.334;5.024;2022-12-20T15:10:53;100943.16;;;9.91;100.00
58955;BME280;45815;52.334;5.024;2022-12-20T15:13:23;100961.53;;;9.92;100.00
58955;BME280;45815;52.334;5.024;2022-12-20T15:15:50;100959.00;;;9.96;100.00